createdAt,value
2022-08-22T00:00:15.873Z,9.418266
2022-08-22T00:01:15.796Z,9.418262
2022-08-22T00:02:15.752Z,9.418221
2022-08-22T00:02:41.709Z,9.418213
2022-08-22T00:02:47.781Z,9.418123
2022-08-22T00:02:57.377Z,9.418219
2022-08-22T00:03:04.818Z,9.418200
2022-08-22T00:03:06.814Z,9.418171
2022-08-22T00:03:15.976Z,9.418296
2022-08-22T00:03:18.451Z,9.418185
2022-08-22T00:04:16.683Z,9.418246
2022-08-22T00:05:15.672Z,9.418288
2022-08-22T00:06:15.675Z,9.418234
2022-08-22T00:07:15.700Z,9.418252
2022-08-22T00:08:15.647Z,9.418265
2022-08-22T00:09:15.639Z,9.418268
2022-08-22T00:10:22.845Z,9.418282
2022-08-22T00:11:16.768Z,9.418276
2022-08-22T00:12:15.616Z,9.418300
2022-08-22T00:13:15.615Z,9.418304
2022-08-22T00:14:15.611Z,9.418316
2022-08-22T00:15:31.715Z,9.418235
2022-08-22T00:16:16.591Z,9.418248
2022-08-22T00:17:15.663Z,9.418273
2022-08-22T00:18:15.575Z,9.418273
2022-08-22T00:19:15.575Z,9.418266
2022-08-22T00:20:15.571Z,9.418252
2022-08-22T00:21:15.561Z,9.418276
2022-08-22T00:22:15.556Z,9.418298
2022-08-22T00:23:15.552Z,9.418282
2022-08-22T00:24:15.536Z,9.418234
2022-08-22T00:25:25.853Z,9.418201
2022-08-22T00:26:16.556Z,9.418251
2022-08-22T00:27:15.535Z,9.418277
2022-08-22T00:28:15.504Z,9.418272
2022-08-22T00:29:15.505Z,9.418242
2022-08-22T00:30:15.496Z,9.418245
2022-08-22T00:31:15.511Z,9.418212
2022-08-22T00:32:15.503Z,9.418252
2022-08-22T00:33:15.471Z,9.418214
2022-08-22T00:34:15.464Z,9.418209
2022-08-22T00:35:15.460Z,9.418203
2022-08-22T00:36:15.475Z,9.418191
2022-08-22T00:37:15.446Z,9.418235
2022-08-22T00:38:15.461Z,9.418209
2022-08-22T00:39:15.427Z,9.418186
2022-08-22T00:40:15.457Z,9.418229
2022-08-22T00:41:15.420Z,9.418275
2022-08-22T00:42:15.415Z,9.418282
2022-08-22T00:43:16.420Z,9.418267
2022-08-22T00:44:15.395Z,9.418262
2022-08-22T00:45:15.395Z,9.418265
2022-08-22T00:46:15.387Z,9.418237
2022-08-22T00:47:15.379Z,9.418282
2022-08-22T00:48:15.368Z,9.418199
2022-08-22T00:49:15.379Z,9.418260
2022-08-22T00:50:15.358Z,9.418262
2022-08-22T00:51:15.336Z,9.418281
2022-08-22T00:52:16.345Z,9.418248
2022-08-22T00:53:15.335Z,9.418258
2022-08-22T00:54:18.000Z,9.418259
2022-08-22T00:55:15.319Z,9.418280
2022-08-22T00:56:15.315Z,9.418186
2022-08-22T00:57:15.307Z,9.418234
2022-08-22T00:58:15.303Z,9.418267
2022-08-22T00:59:23.738Z,9.418283
2022-08-22T01:00:16.289Z,9.418264
2022-08-22T01:01:15.324Z,9.418257
2022-08-22T01:02:15.268Z,9.418267
2022-08-22T01:03:15.254Z,9.418218
2022-08-22T01:04:15.271Z,9.418213
2022-08-22T01:05:15.256Z,9.418283
2022-08-22T01:06:15.239Z,9.418248
2022-08-22T01:07:15.235Z,9.418261
2022-08-22T01:08:15.227Z,9.418334
2022-08-22T01:09:15.215Z,9.418348
2022-08-22T01:10:15.235Z,9.418339
2022-08-22T01:11:15.204Z,9.418320
2022-08-22T01:12:15.195Z,9.418292
2022-08-22T01:13:15.190Z,9.418310
2022-08-22T01:14:15.187Z,9.418313
2022-08-22T01:15:15.189Z,9.418273
2022-08-22T01:16:15.167Z,9.418262
2022-08-22T01:17:15.163Z,9.418235
2022-08-22T01:18:15.167Z,9.418308
2022-08-22T01:19:15.148Z,9.418328
2022-08-22T01:20:15.142Z,9.418301
2022-08-22T01:21:15.147Z,9.418329
2022-08-22T01:22:16.136Z,9.418344
2022-08-22T01:23:15.122Z,9.418303
2022-08-22T01:24:15.114Z,9.418297
2022-08-22T01:25:15.111Z,9.418291
2022-08-22T01:26:15.120Z,9.418272
2022-08-22T01:27:15.099Z,9.418272
2022-08-22T01:28:15.079Z,9.418234
2022-08-22T01:29:15.067Z,9.418268
2022-08-22T01:30:15.071Z,9.418251
2022-08-22T01:31:15.076Z,9.418251
2022-08-22T01:32:15.057Z,9.418251
2022-08-22T01:33:15.059Z,9.418269
2022-08-22T01:34:15.038Z,9.418265
2022-08-22T01:35:15.031Z,9.418272
2022-08-22T01:36:15.027Z,9.418290
2022-08-22T01:37:15.035Z,9.418271
2022-08-22T01:38:15.006Z,9.418245
2022-08-22T01:39:15.011Z,9.418287
2022-08-22T01:40:15.078Z,9.418185
2022-08-22T01:41:14.986Z,9.418241
2022-08-22T01:42:15.241Z,9.418284
2022-08-22T01:43:14.974Z,9.418235
2022-08-22T01:44:14.971Z,9.418249
2022-08-22T01:45:14.967Z,9.418281
2022-08-22T01:46:14.958Z,9.418248
2022-08-22T01:47:14.967Z,9.418256
2022-08-22T01:48:14.944Z,9.418234
2022-08-22T01:49:14.937Z,9.418190
2022-08-22T01:50:14.926Z,9.418182
2022-08-22T01:51:14.922Z,9.418194
2022-08-22T01:52:14.930Z,9.418289
2022-08-22T01:53:14.923Z,9.418340
2022-08-22T01:54:14.910Z,9.418268
2022-08-22T01:55:14.906Z,9.418237
2022-08-22T01:56:14.894Z,9.418193
2022-08-22T01:57:14.882Z,9.418255
2022-08-22T01:58:15.895Z,9.418308
2022-08-22T01:59:14.873Z,9.418288
2022-08-22T02:00:14.883Z,9.418335
2022-08-22T02:01:14.905Z,9.418341
2022-08-22T02:02:14.850Z,9.418298
2022-08-22T02:03:14.854Z,9.418290
2022-08-22T02:04:14.835Z,9.418357
2022-08-22T02:05:14.827Z,9.418328
2022-08-22T02:06:14.831Z,9.418335
2022-08-22T02:07:14.818Z,9.418270
2022-08-22T02:08:14.823Z,9.418275
2022-08-22T02:09:14.809Z,9.418304
2022-08-22T02:10:14.806Z,9.418344
2022-08-22T02:11:14.798Z,9.418234
2022-08-22T02:12:21.853Z,9.418284
2022-08-22T02:13:15.804Z,9.418298
2022-08-22T02:14:14.771Z,9.418276
2022-08-22T02:15:14.767Z,9.418219
2022-08-22T02:16:14.766Z,9.418263
2022-08-22T02:17:14.762Z,9.418267
2022-08-22T02:18:14.779Z,9.418292
2022-08-22T02:19:14.730Z,9.418331
2022-08-22T02:20:14.740Z,9.418322
2022-08-22T02:21:14.726Z,9.418292
2022-08-22T02:22:14.733Z,9.418346
2022-08-22T02:23:14.717Z,9.418324
2022-08-22T02:24:14.730Z,9.418283
2022-08-22T02:25:14.714Z,9.418295
2022-08-22T02:26:14.702Z,9.418327
2022-08-22T02:27:14.698Z,9.418334
2022-08-22T02:28:14.690Z,9.418324
2022-08-22T02:29:14.698Z,9.418324
2022-08-22T02:30:14.674Z,9.418338
2022-08-22T02:31:16.652Z,9.418352
2022-08-22T02:32:14.667Z,9.418336
2022-08-22T02:33:14.654Z,9.418334
2022-08-22T02:34:14.666Z,9.418294
2022-08-22T02:35:14.644Z,9.418342
2022-08-22T02:36:14.660Z,9.418275
2022-08-22T02:37:14.638Z,9.418333
2022-08-22T02:38:14.643Z,9.418361
2022-08-22T02:39:14.618Z,9.418341
2022-08-22T02:40:14.773Z,9.418307
2022-08-22T02:41:14.626Z,9.418297
2022-08-22T02:42:14.610Z,9.418309
2022-08-22T02:43:14.598Z,9.418265
2022-08-22T02:44:14.590Z,9.418293
2022-08-22T02:45:14.575Z,9.418284
2022-08-22T02:46:14.599Z,9.418247
2022-08-22T02:47:14.574Z,9.418232
2022-08-22T02:48:14.570Z,9.418259
2022-08-22T02:49:14.558Z,9.418303
2022-08-22T02:50:14.537Z,9.418279
2022-08-22T02:51:14.547Z,9.418309
2022-08-22T02:52:14.543Z,9.418278
2022-08-22T02:53:14.534Z,9.418279
2022-08-22T02:54:14.518Z,9.418270
2022-08-22T02:55:14.510Z,9.418202
2022-08-22T02:56:14.516Z,9.418306
2022-08-22T02:57:14.750Z,9.418303
2022-08-22T02:58:14.489Z,9.418298
2022-08-22T02:59:15.499Z,9.418359
2022-08-22T03:00:31.918Z,9.418323
2022-08-22T03:01:15.522Z,9.418319
2022-08-22T03:02:14.475Z,9.418258
2022-08-22T03:03:14.464Z,9.418254
2022-08-22T03:04:14.462Z,9.418317
2022-08-22T03:05:14.450Z,9.418260
2022-08-22T03:06:14.439Z,9.418178
2022-08-22T03:07:15.450Z,9.418300
2022-08-22T03:08:14.450Z,9.418329
2022-08-22T03:09:14.426Z,9.418314
2022-08-22T03:10:14.426Z,9.418318
2022-08-22T03:11:14.421Z,9.418332
2022-08-22T03:12:14.405Z,9.418320
2022-08-22T03:13:14.407Z,9.418323
2022-08-22T03:14:14.399Z,9.418284
2022-08-22T03:15:14.410Z,9.418263
2022-08-22T03:16:14.386Z,9.418160
2022-08-22T03:17:14.393Z,9.418215
2022-08-22T03:18:14.374Z,9.418213
2022-08-22T03:19:18.870Z,9.418262
2022-08-22T03:20:14.362Z,9.418201
2022-08-22T03:21:14.361Z,9.418215
2022-08-22T03:22:14.349Z,9.418310
2022-08-22T03:23:14.355Z,9.418225
2022-08-22T03:24:14.335Z,9.418269
2022-08-22T03:25:14.326Z,9.418242
2022-08-22T03:26:14.313Z,9.418227
2022-08-22T03:27:14.333Z,9.418165
2022-08-22T03:28:15.326Z,9.418048
2022-08-22T03:29:14.302Z,9.418081
2022-08-22T03:30:14.302Z,9.418168
2022-08-22T03:31:14.298Z,9.418261
2022-08-22T03:32:14.290Z,9.418116
2022-08-22T03:33:14.302Z,9.418143
2022-08-22T03:34:14.262Z,9.418120
2022-08-22T03:35:14.266Z,9.418197
2022-08-22T03:36:14.260Z,9.418208
2022-08-22T03:37:14.247Z,9.418266
2022-08-22T03:38:15.278Z,9.418296
2022-08-22T03:39:17.236Z,9.418413
2022-08-22T03:40:14.298Z,9.418398
2022-08-22T03:41:14.238Z,9.418283
2022-08-22T03:42:14.234Z,9.418277
2022-08-22T03:43:14.209Z,9.418267
2022-08-22T03:44:14.226Z,9.418323
2022-08-22T03:45:14.218Z,9.418459
2022-08-22T03:46:14.185Z,9.418338
2022-08-22T03:47:14.213Z,9.418153
2022-08-22T03:48:14.198Z,9.418282
2022-08-22T03:49:14.198Z,9.418284
2022-08-22T03:50:14.177Z,9.418280
2022-08-22T03:51:14.169Z,9.418253
2022-08-22T03:52:14.158Z,9.418242
2022-08-22T03:53:18.514Z,9.418255
2022-08-22T03:54:14.183Z,9.418292
2022-08-22T03:55:14.142Z,9.418242
2022-08-22T03:56:14.138Z,9.418262
2022-08-22T03:57:14.136Z,9.418271
2022-08-22T03:58:27.638Z,9.418290
2022-08-22T03:59:15.150Z,9.418284
2022-08-22T04:00:14.117Z,9.418262
2022-08-22T04:01:14.142Z,9.418242
2022-08-22T04:02:26.205Z,9.418296
2022-08-22T04:03:15.105Z,9.418268
2022-08-22T04:04:14.086Z,9.418303
2022-08-22T04:05:14.094Z,9.418310
2022-08-22T04:06:14.086Z,9.418319
2022-08-22T04:07:32.201Z,9.418358
2022-08-22T04:08:15.065Z,9.418308
2022-08-22T04:09:14.077Z,9.418279
2022-08-22T04:10:14.063Z,9.418294
2022-08-22T04:11:14.042Z,9.418326
2022-08-22T04:12:14.046Z,9.418236
2022-08-22T04:13:14.035Z,9.418406
2022-08-22T04:14:14.025Z,9.418203
2022-08-22T04:15:14.042Z,9.418299
2022-08-22T04:16:14.009Z,9.418360
2022-08-22T04:17:14.005Z,9.418262
2022-08-22T04:18:13.997Z,9.418271
2022-08-22T04:19:13.987Z,9.418334
2022-08-22T04:20:16.614Z,9.418318
2022-08-22T04:21:13.977Z,9.418259
2022-08-22T04:22:13.971Z,9.418180
2022-08-22T04:23:13.961Z,9.418315
2022-08-22T04:24:13.977Z,9.418273
2022-08-22T04:25:13.961Z,9.418304
2022-08-22T04:26:13.970Z,9.418305
2022-08-22T04:27:13.954Z,9.418297
2022-08-22T04:28:13.942Z,9.418238
2022-08-22T04:29:13.937Z,9.418259
2022-08-22T04:30:13.930Z,9.418171
2022-08-22T04:31:13.945Z,9.418341
2022-08-22T04:32:14.754Z,9.418388
2022-08-22T04:33:14.905Z,9.418343
2022-08-22T04:34:13.901Z,9.418157
2022-08-22T04:35:13.901Z,9.418109
2022-08-22T04:36:13.894Z,9.417984
2022-08-22T04:37:13.898Z,9.418087
2022-08-22T04:38:13.873Z,9.418166
2022-08-22T04:39:13.864Z,9.418296
2022-08-22T04:40:13.926Z,9.418254
2022-08-22T04:41:13.853Z,9.418274
2022-08-22T04:42:31.656Z,9.418343
2022-08-22T04:43:15.849Z,9.418370
2022-08-22T04:44:13.841Z,9.418490
2022-08-22T04:45:13.850Z,9.418219
2022-08-22T04:46:13.837Z,9.418204
2022-08-22T04:47:13.841Z,9.418412
2022-08-22T04:48:13.837Z,9.418361
2022-08-22T04:49:13.813Z,9.418375
2022-08-22T04:50:13.809Z,9.418306
2022-08-22T04:51:13.802Z,9.418363
2022-08-22T04:52:13.849Z,9.418352
2022-08-22T04:53:13.799Z,9.418372
2022-08-22T04:54:13.788Z,9.418351
2022-08-22T04:55:13.782Z,9.418394
2022-08-22T04:56:13.776Z,9.418290
2022-08-22T04:57:13.768Z,9.418222
2022-08-22T04:58:13.775Z,9.418272
2022-08-22T04:59:13.757Z,9.418333
2022-08-22T05:00:13.750Z,9.418285
2022-08-22T05:01:13.783Z,9.418263
2022-08-22T05:02:13.736Z,9.418335
2022-08-22T05:03:13.758Z,9.418279
2022-08-22T05:04:13.739Z,9.418174
2022-08-22T05:05:13.996Z,9.418263
2022-08-22T05:06:13.710Z,9.418278
2022-08-22T05:07:13.699Z,9.418213
2022-08-22T05:08:13.723Z,9.418241
2022-08-22T05:09:16.191Z,9.418279
2022-08-22T05:10:14.684Z,9.418144
2022-08-22T05:11:13.679Z,9.418205
2022-08-22T05:12:13.676Z,9.418200
2022-08-22T05:13:13.671Z,9.418193
2022-08-22T05:14:13.675Z,9.418221
2022-08-22T05:15:13.659Z,9.418244
2022-08-22T05:16:13.650Z,9.418237
2022-08-22T05:17:16.937Z,9.418265
2022-08-22T05:18:13.635Z,9.418197
2022-08-22T05:19:16.785Z,9.418238
2022-08-22T05:20:14.633Z,9.418216
2022-08-22T05:21:14.638Z,9.418204
2022-08-22T05:22:13.615Z,9.418242
2022-08-22T05:23:17.060Z,9.418269
2022-08-22T05:24:13.610Z,9.418327
2022-08-22T05:25:13.602Z,9.418293
2022-08-22T05:26:13.587Z,9.418285
2022-08-22T05:27:13.575Z,9.418252
2022-08-22T05:28:13.571Z,9.418274
2022-08-22T05:29:13.567Z,9.418242
2022-08-22T05:30:13.570Z,9.418251
2022-08-22T05:31:13.561Z,9.418180
2022-08-22T05:32:13.553Z,9.418268
2022-08-22T05:33:13.539Z,9.418219
2022-08-22T05:34:13.544Z,9.418330
2022-08-22T05:35:13.550Z,9.418279
2022-08-22T05:36:13.527Z,9.418278
2022-08-22T05:37:13.516Z,9.418264
2022-08-22T05:38:13.514Z,9.418168
2022-08-22T05:39:13.508Z,9.418312
2022-08-22T05:40:13.586Z,9.418249
2022-08-22T05:41:13.501Z,9.418223
2022-08-22T05:42:13.494Z,9.418240
2022-08-22T05:43:13.495Z,9.418246
2022-08-22T05:44:13.485Z,9.418330
2022-08-22T05:45:13.474Z,9.418322
2022-08-22T05:46:13.475Z,9.418230
2022-08-22T05:47:13.467Z,9.418190
2022-08-22T05:48:13.457Z,9.418163
2022-08-22T05:49:13.446Z,9.418169
2022-08-22T05:50:13.447Z,9.418182
2022-08-22T05:51:13.443Z,9.418282
2022-08-22T05:52:13.424Z,9.418235
2022-08-22T05:53:13.423Z,9.418214
2022-08-22T05:54:13.423Z,9.418283
2022-08-22T05:55:13.411Z,9.418228
2022-08-22T05:56:13.432Z,9.418246
2022-08-22T05:57:13.415Z,9.418298
2022-08-22T05:58:13.399Z,9.418263
2022-08-22T05:59:13.401Z,9.418293
2022-08-22T06:00:13.388Z,9.418337
2022-08-22T06:01:13.390Z,9.418262
2022-08-22T06:02:13.457Z,9.418209
2022-08-22T06:03:13.369Z,9.418255
2022-08-22T06:04:13.370Z,9.418275
2022-08-22T06:05:13.350Z,9.418221
2022-08-22T06:06:13.359Z,9.418268
2022-08-22T06:07:13.370Z,9.418229
2022-08-22T06:08:13.326Z,9.418284
2022-08-22T06:09:13.321Z,9.418324
2022-08-22T06:10:13.317Z,9.418304
2022-08-22T06:11:13.305Z,9.418367
2022-08-22T06:12:21.593Z,9.418269
2022-08-22T06:13:15.297Z,9.418338
2022-08-22T06:14:14.292Z,9.418337
2022-08-22T06:15:13.289Z,9.418438
2022-08-22T06:16:13.277Z,9.418302
2022-08-22T06:17:13.297Z,9.418232
2022-08-22T06:18:13.261Z,9.418235
2022-08-22T06:19:19.193Z,9.418279
2022-08-22T06:20:14.241Z,9.418246
2022-08-22T06:21:14.245Z,9.418241
2022-08-22T06:22:18.784Z,9.418269
2022-08-22T06:23:14.228Z,9.418253
2022-08-22T06:24:13.232Z,9.418227
2022-08-22T06:25:13.216Z,9.418233
2022-08-22T06:26:20.455Z,9.418232
2022-08-22T06:27:14.216Z,9.418259
2022-08-22T06:28:13.185Z,9.418235
2022-08-22T06:29:13.181Z,9.418231
2022-08-22T06:30:13.169Z,9.418162
2022-08-22T06:31:13.183Z,9.418179
2022-08-22T06:32:13.157Z,9.418223
2022-08-22T06:33:13.238Z,9.418234
2022-08-22T06:34:13.152Z,9.418220
2022-08-22T06:35:13.141Z,9.418217
2022-08-22T06:36:13.124Z,9.418186
2022-08-22T06:37:13.132Z,9.418218
2022-08-22T06:38:13.129Z,9.418187
2022-08-22T06:39:13.105Z,9.418236
2022-08-22T06:40:13.150Z,9.418228
2022-08-22T06:41:13.094Z,9.418330
2022-08-22T06:42:16.487Z,9.418292
2022-08-22T06:43:14.099Z,9.418288
2022-08-22T06:44:13.073Z,9.418249
2022-08-22T06:45:13.061Z,9.418287
2022-08-22T06:46:13.057Z,9.418341
2022-08-22T06:47:13.053Z,9.418273
2022-08-22T06:48:13.050Z,9.418265
2022-08-22T06:49:13.038Z,9.418224
2022-08-22T06:50:13.933Z,9.418281
2022-08-22T06:51:13.022Z,9.418244
2022-08-22T06:52:13.007Z,9.418305
2022-08-22T06:53:13.021Z,9.418288
2022-08-22T06:54:12.989Z,9.418323
2022-08-22T06:55:12.990Z,9.418288
2022-08-22T06:56:13.000Z,9.418299
2022-08-22T06:57:12.984Z,9.418318
2022-08-22T06:58:12.974Z,9.418291
2022-08-22T06:59:12.970Z,9.418270
2022-08-22T07:00:12.954Z,9.418284
2022-08-22T07:01:12.969Z,9.418277
2022-08-22T07:02:13.058Z,9.418308
2022-08-22T07:03:12.938Z,9.418304
2022-08-22T07:04:12.930Z,9.418320
2022-08-22T07:05:12.922Z,9.418334
2022-08-22T07:06:12.930Z,9.418344
2022-08-22T07:07:12.914Z,9.418330
2022-08-22T07:08:12.905Z,9.418360
2022-08-22T07:09:12.906Z,9.418332
2022-08-22T07:10:12.890Z,9.418297
2022-08-22T07:11:12.925Z,9.418326
2022-08-22T07:12:12.886Z,9.418336
2022-08-22T07:13:12.869Z,9.418310
2022-08-22T07:14:12.862Z,9.418356
2022-08-22T07:15:12.866Z,9.418241
2022-08-22T07:16:12.853Z,9.418216
2022-08-22T07:17:12.859Z,9.418287
2022-08-22T07:18:12.834Z,9.418299
2022-08-22T07:19:13.834Z,9.418290
2022-08-22T07:20:12.822Z,9.418263
2022-08-22T07:21:12.822Z,9.418246
2022-08-22T07:22:12.824Z,9.418215
2022-08-22T07:23:12.801Z,9.418230
2022-08-22T07:24:12.794Z,9.418214
2022-08-22T07:25:12.798Z,9.418244
2022-08-22T07:26:12.790Z,9.418207
2022-08-22T07:27:12.794Z,9.418233
2022-08-22T07:28:12.791Z,9.418174
2022-08-22T07:29:12.769Z,9.418213
2022-08-22T07:30:12.896Z,9.418173
2022-08-22T07:31:12.877Z,9.418233
2022-08-22T07:32:12.753Z,9.418331
2022-08-22T07:33:25.214Z,9.418324
2022-08-22T07:34:13.766Z,9.418298
2022-08-22T07:35:12.731Z,9.418216
2022-08-22T07:36:12.723Z,9.418200
2022-08-22T07:37:12.728Z,9.418244
2022-08-22T07:38:12.701Z,9.418291
2022-08-22T07:39:12.718Z,9.418223
2022-08-22T07:40:12.719Z,9.418096
2022-08-22T07:41:12.708Z,9.418189
2022-08-22T07:42:12.696Z,9.418278
2022-08-22T07:43:12.679Z,9.418217
2022-08-22T07:44:12.667Z,9.418245
2022-08-22T07:45:12.661Z,9.418272
2022-08-22T07:46:12.657Z,9.418262
2022-08-22T07:47:12.651Z,9.418247
2022-08-22T07:48:17.221Z,9.418191
2022-08-22T07:49:13.637Z,9.418132
2022-08-22T07:50:13.634Z,9.418131
2022-08-22T07:51:12.622Z,9.418182
2022-08-22T07:52:12.613Z,9.418231
2022-08-22T07:53:13.448Z,9.418262
2022-08-22T07:54:12.615Z,9.418187
2022-08-22T07:55:12.609Z,9.418134
2022-08-22T07:56:12.581Z,9.418075
2022-08-22T07:57:12.577Z,9.418102
2022-08-22T07:58:12.577Z,9.418076
2022-08-22T07:59:13.239Z,9.418052
2022-08-22T08:00:12.561Z,9.418150
2022-08-22T08:01:12.601Z,9.418322
2022-08-22T08:02:12.571Z,9.418283
2022-08-22T08:03:12.541Z,9.418262
2022-08-22T08:04:12.541Z,9.418298
2022-08-22T08:05:12.536Z,9.418231
2022-08-22T08:06:12.537Z,9.418190
2022-08-22T08:07:12.613Z,9.418190
2022-08-22T08:08:13.822Z,9.418180
2022-08-22T08:09:12.513Z,9.418220
2022-08-22T08:10:13.304Z,9.418225
2022-08-22T08:11:13.492Z,9.418236
2022-08-22T08:12:12.485Z,9.418262
2022-08-22T08:13:12.478Z,9.418262
2022-08-22T08:14:13.553Z,9.418205
2022-08-22T08:15:12.485Z,9.418120
2022-08-22T08:16:12.461Z,9.418236
2022-08-22T08:17:12.449Z,9.418210
2022-08-22T08:18:12.455Z,9.418266
2022-08-22T08:19:12.440Z,9.418283
2022-08-22T08:20:12.449Z,9.418327
2022-08-22T08:21:12.429Z,9.418297
2022-08-22T08:22:12.422Z,9.418249
2022-08-22T08:23:12.409Z,9.418241
2022-08-22T08:24:12.409Z,9.418302
2022-08-22T08:25:12.406Z,9.418294
2022-08-22T08:26:12.408Z,9.418245
2022-08-22T08:27:12.411Z,9.418275
2022-08-22T08:28:12.384Z,9.418252
2022-08-22T08:29:12.373Z,9.418212
2022-08-22T08:30:15.481Z,9.418244
2022-08-22T08:31:13.374Z,9.418242
2022-08-22T08:32:12.358Z,9.418240
2022-08-22T08:33:26.106Z,9.418242
2022-08-22T08:34:13.357Z,9.418241
2022-08-22T08:35:12.342Z,9.418221
2022-08-22T08:36:12.333Z,9.418214
2022-08-22T08:37:12.802Z,9.418167
2022-08-22T08:38:12.333Z,9.418183
2022-08-22T08:39:12.349Z,9.418126
2022-08-22T08:40:12.368Z,9.418198
2022-08-22T08:41:12.300Z,9.418202
2022-08-22T08:42:12.289Z,9.418258
2022-08-22T08:43:12.313Z,9.418247
2022-08-22T08:44:12.273Z,9.418260
2022-08-22T08:45:12.272Z,9.418285
2022-08-22T08:46:12.269Z,9.418256
2022-08-22T08:47:12.261Z,9.418266
2022-08-22T08:48:12.256Z,9.418273
2022-08-22T08:49:12.273Z,9.418278
2022-08-22T08:50:12.245Z,9.418268
2022-08-22T08:51:12.237Z,9.418238
2022-08-22T08:52:12.461Z,9.418201
2022-08-22T08:53:12.212Z,9.418220
2022-08-22T08:54:12.227Z,9.418256
2022-08-22T08:55:21.710Z,9.418241
2022-08-22T08:56:15.618Z,9.418296
2022-08-22T08:57:13.197Z,9.418280
2022-08-22T08:58:12.196Z,9.418262
2022-08-22T08:59:12.189Z,9.418242
2022-08-22T09:00:12.380Z,9.418271
2022-08-22T09:01:12.239Z,9.418238
2022-08-22T09:02:13.730Z,9.418320
2022-08-22T09:03:15.846Z,9.418321
2022-08-22T09:04:15.364Z,9.418283
2022-08-22T09:05:12.168Z,9.418280
2022-08-22T09:06:12.145Z,9.418288
2022-08-22T09:07:12.147Z,9.418250
2022-08-22T09:08:12.132Z,9.418266
2022-08-22T09:09:12.135Z,9.418326
2022-08-22T09:10:12.132Z,9.418344
2022-08-22T09:11:12.131Z,9.418330
2022-08-22T09:12:12.112Z,9.418342
2022-08-22T09:13:12.982Z,9.418274
2022-08-22T09:14:12.108Z,9.418303
2022-08-22T09:15:14.437Z,9.418311
2022-08-22T09:16:12.109Z,9.418268
2022-08-22T09:17:12.089Z,9.418342
2022-08-22T09:18:12.079Z,9.418305
2022-08-22T09:19:12.070Z,9.418294
2022-08-22T09:20:18.080Z,9.418301
2022-08-22T09:21:13.072Z,9.418308
2022-08-22T09:22:14.182Z,9.418261
2022-08-22T09:23:12.044Z,9.418326
2022-08-22T09:24:12.040Z,9.418311
2022-08-22T09:25:12.035Z,9.418318
2022-08-22T09:26:12.039Z,9.418347
2022-08-22T09:27:12.061Z,9.418356
2022-08-22T09:28:13.691Z,9.418363
2022-08-22T09:29:12.029Z,9.418297
2022-08-22T09:30:12.012Z,9.418315
2022-08-22T09:31:16.942Z,9.418320
2022-08-22T09:32:13.396Z,9.418278
2022-08-22T09:33:11.992Z,9.418298
2022-08-22T09:34:12.021Z,9.418268
2022-08-22T09:35:11.989Z,9.418297
2022-08-22T09:36:12.631Z,9.418288
2022-08-22T09:37:13.936Z,9.418264
2022-08-22T09:38:12.000Z,9.418285
2022-08-22T09:39:11.972Z,9.418268
2022-08-22T09:40:16.698Z,9.418289
2022-08-22T09:41:13.981Z,9.418294
2022-08-22T09:42:11.949Z,9.418243
2022-08-22T09:43:11.990Z,9.418288
2022-08-22T09:44:12.184Z,9.418287
2022-08-22T09:45:11.938Z,9.418273
2022-08-22T09:46:11.935Z,9.418325
2022-08-22T09:47:11.928Z,9.418302
2022-08-22T09:48:11.919Z,9.418262
2022-08-22T09:49:11.942Z,9.418285
2022-08-22T09:50:11.920Z,9.418354
2022-08-22T09:51:31.205Z,9.418306
2022-08-22T09:52:15.455Z,9.418368
2022-08-22T09:53:12.881Z,9.418291
2022-08-22T09:54:11.913Z,9.418266
2022-08-22T09:55:15.963Z,9.418236
2022-08-22T09:56:15.770Z,9.418313
2022-08-22T09:57:14.005Z,9.418274
2022-08-22T09:58:11.851Z,9.418324
2022-08-22T09:59:11.856Z,9.418333
2022-08-22T10:00:11.851Z,9.418360
2022-08-22T10:01:11.989Z,9.418323
2022-08-22T10:02:15.329Z,9.418363
2022-08-22T10:03:11.831Z,9.418350
2022-08-22T10:04:11.824Z,9.418348
2022-08-22T10:05:11.828Z,9.418316
2022-08-22T10:06:11.811Z,9.418330
2022-08-22T10:07:12.265Z,9.418338
2022-08-22T10:08:12.820Z,9.418393
2022-08-22T10:09:11.803Z,9.418300
2022-08-22T10:10:11.796Z,9.418346
2022-08-22T10:11:11.792Z,9.418301
2022-08-22T10:12:12.485Z,9.418316
2022-08-22T10:13:11.800Z,9.418330
2022-08-22T10:14:11.778Z,9.418289
2022-08-22T10:15:11.802Z,9.418359
2022-08-22T10:16:11.784Z,9.418295
2022-08-22T10:17:11.768Z,9.418285
2022-08-22T10:18:11.773Z,9.418325
2022-08-22T10:19:11.809Z,9.418370
2022-08-22T10:20:11.757Z,9.418400
2022-08-22T10:21:11.800Z,9.418344
2022-08-22T10:22:11.741Z,9.418349
2022-08-22T10:23:11.747Z,9.418361
2022-08-22T10:24:11.746Z,9.418326
2022-08-22T10:25:11.743Z,9.418306
2022-08-22T10:26:11.739Z,9.418308
2022-08-22T10:27:12.777Z,9.418328
2022-08-22T10:28:11.703Z,9.418305
2022-08-22T10:29:11.710Z,9.418321
2022-08-22T10:30:13.168Z,9.418339
2022-08-22T10:31:11.682Z,9.418360
2022-08-22T10:32:14.568Z,9.418336
2022-08-22T10:33:12.209Z,9.418326
2022-08-22T10:34:11.669Z,9.418328
2022-08-22T10:35:11.693Z,9.418310
2022-08-22T10:36:12.163Z,9.418264
2022-08-22T10:37:11.670Z,9.418257
2022-08-22T10:38:12.383Z,9.418285
2022-08-22T10:39:12.027Z,9.418291
2022-08-22T10:40:12.705Z,9.418278
2022-08-22T10:41:11.650Z,9.418309
2022-08-22T10:42:11.653Z,9.418323
2022-08-22T10:43:11.638Z,9.418261
2022-08-22T10:44:11.646Z,9.418295
2022-08-22T10:45:11.625Z,9.418281
2022-08-22T10:46:12.654Z,9.418258
2022-08-22T10:47:11.679Z,9.418313
2022-08-22T10:48:11.605Z,9.418320
2022-08-22T10:49:14.316Z,9.418306
2022-08-22T10:50:11.703Z,9.418313
2022-08-22T10:51:11.614Z,9.418365
2022-08-22T10:52:15.598Z,9.418369
2022-08-22T10:53:12.592Z,9.418283
2022-08-22T10:54:11.597Z,9.418292
2022-08-22T10:55:11.573Z,9.418301
2022-08-22T10:56:11.571Z,9.418212
2022-08-22T10:57:11.566Z,9.418301
2022-08-22T10:58:11.585Z,9.418284
2022-08-22T10:59:11.573Z,9.418271
2022-08-22T11:00:11.551Z,9.418318
2022-08-22T11:01:38.106Z,9.418299
2022-08-22T11:02:12.541Z,9.418285
2022-08-22T11:03:15.119Z,9.418270
2022-08-22T11:04:12.537Z,9.418288
2022-08-22T11:05:11.550Z,9.418268
2022-08-22T11:06:12.762Z,9.418251
2022-08-22T11:07:11.522Z,9.418263
2022-08-22T11:08:11.517Z,9.418197
2022-08-22T11:09:11.525Z,9.418247
2022-08-22T11:10:11.535Z,9.418271
2022-08-22T11:11:11.504Z,9.418279
2022-08-22T11:12:11.526Z,9.418284
2022-08-22T11:13:11.523Z,9.418221
2022-08-22T11:14:11.523Z,9.418125
2022-08-22T11:15:11.502Z,9.418168
2022-08-22T11:16:11.482Z,9.418230
2022-08-22T11:17:23.627Z,9.418205
2022-08-22T11:18:13.077Z,9.418202
2022-08-22T11:19:14.962Z,9.418240
2022-08-22T11:20:11.481Z,9.418223
2022-08-22T11:21:11.454Z,9.418257
2022-08-22T11:22:11.437Z,9.418225
2022-08-22T11:23:12.315Z,9.418266
2022-08-22T11:24:17.363Z,9.418229
2022-08-22T11:25:12.458Z,9.418174
2022-08-22T11:26:11.442Z,9.418181
2022-08-22T11:27:13.145Z,9.418306
2022-08-22T11:28:12.418Z,9.418276
2022-08-22T11:29:13.587Z,9.418262
2022-08-22T11:30:11.434Z,9.418262
2022-08-22T11:31:12.404Z,9.418242
2022-08-22T11:32:11.426Z,9.418257
2022-08-22T11:33:11.409Z,9.418280
2022-08-22T11:34:11.398Z,9.418376
2022-08-22T11:35:11.411Z,9.418113
2022-08-22T11:36:11.400Z,9.418186
2022-08-22T11:37:11.541Z,9.418271
2022-08-22T11:38:11.391Z,9.418223